createdAt,value
2019-04-07T00:02:24.584Z,94885.43
2019-04-07T00:04:53.527Z,94894.52
2019-04-07T00:07:22.158Z,94893.91
2019-04-07T00:09:50.677Z,94893.55
2019-04-07T00:12:19.182Z,94899.16
2019-04-07T00:15:03.655Z,94894.89
2019-04-07T00:17:32.355Z,94903.19
2019-04-07T00:20:00.817Z,94908.20
2019-04-07T00:22:29.837Z,94909.72
2019-04-07T00:24:58.409Z,94908.25
2019-04-07T00:27:26.892Z,94911.51
2019-04-07T00:29:55.492Z,94911.14
2019-04-07T00:32:24.940Z,94908.80
2019-04-07T00:34:54.051Z,94909.56
2019-04-07T00:37:22.987Z,94908.52
2019-04-07T00:39:51.625Z,94905.75
2019-04-07T00:42:20.102Z,94907.20
2019-04-07T00:44:48.607Z,94897.91
2019-04-07T00:47:17.098Z,94912.73
2019-04-07T00:49:46.626Z,94908.69
2019-04-07T00:52:17.318Z,94910.97
2019-04-07T00:54:45.984Z,94919.45
2019-04-07T00:57:14.834Z,94922.80
2019-04-07T00:59:43.305Z,94926.45
2019-04-07T01:02:12.272Z,94928.42
2019-04-07T01:04:40.993Z,94929.97
2019-04-07T01:07:10.215Z,94933.26
2019-04-07T01:09:38.980Z,94943.34
2019-04-07T01:12:07.851Z,94940.81
2019-04-07T01:14:36.791Z,94940.09
2019-04-07T01:17:06.128Z,94933.91
2019-04-07T01:19:34.644Z,94936.73
2019-04-07T01:22:03.190Z,94943.49
2019-04-07T01:24:33.044Z,94945.77
2019-04-07T01:27:01.742Z,94943.05
2019-04-07T01:29:30.792Z,94949.05
2019-04-07T01:31:59.541Z,94940.04
2019-04-07T01:34:33.048Z,94941.23
2019-04-07T01:37:01.548Z,94944.56
2019-04-07T01:39:30.673Z,94945.52
2019-04-07T01:42:12.967Z,94946.33
2019-04-07T01:44:43.119Z,94944.11
2019-04-07T01:47:19.085Z,94942.67
2019-04-07T01:49:49.268Z,94947.77
2019-04-07T01:52:19.625Z,94948.75
2019-04-07T01:54:55.935Z,94949.70
2019-04-07T01:57:35.454Z,94961.55
2019-04-07T02:00:08.343Z,94958.55
2019-04-07T02:02:50.064Z,94953.72
2019-04-07T02:05:36.481Z,94958.06
2019-04-07T02:08:09.756Z,94957.60
2019-04-07T02:10:55.155Z,94953.34
2019-04-07T02:13:25.295Z,94948.83
2019-04-07T02:15:56.039Z,94953.06
2019-04-07T02:18:32.927Z,94959.34
2019-04-07T02:21:20.682Z,94962.02
2019-04-07T02:23:56.933Z,94955.33
2019-04-07T02:26:27.873Z,94953.99
2019-04-07T02:29:16.014Z,94951.61
2019-04-07T02:34:34.083Z,94960.00
2019-04-07T02:37:13.910Z,94957.94
2019-04-07T02:39:50.689Z,94962.66
2019-04-07T02:42:26.768Z,94963.63
2019-04-07T02:44:59.663Z,94963.92
2019-04-07T02:47:32.667Z,94964.06
2019-04-07T02:50:21.933Z,94970.05
2019-04-07T02:53:08.385Z,94965.67
2019-04-07T02:55:53.691Z,94965.03
2019-04-07T02:58:29.804Z,94967.94
2019-04-07T03:01:05.947Z,94976.59
2019-04-07T03:03:39.174Z,94974.84
2019-04-07T03:06:32.464Z,94976.64
2019-04-07T03:08:50.619Z,94979.16
2019-04-07T03:11:24.769Z,94978.27
2019-04-07T03:14:12.386Z,94979.31
2019-04-07T03:16:51.771Z,94986.92
2019-04-07T03:19:27.881Z,94987.17
2019-04-07T03:22:01.019Z,94985.24
2019-04-07T03:24:31.384Z,94999.09
2019-04-07T03:27:13.497Z,94990.29
2019-04-07T03:29:56.708Z,94995.08
2019-04-07T03:32:45.355Z,95000.42
2019-04-07T03:35:32.807Z,95006.30
2019-04-07T03:38:05.003Z,95004.80
2019-04-07T03:40:51.638Z,95002.74
2019-04-07T03:43:30.460Z,95008.91
2019-04-07T03:46:09.250Z,95007.48
2019-04-07T03:48:42.398Z,95015.67
2019-04-07T03:51:24.440Z,95012.58
2019-04-07T03:54:03.185Z,95013.73
2019-04-07T03:56:43.381Z,95004.23
2019-04-07T03:59:29.866Z,95007.77
2019-04-07T04:02:18.420Z,94991.33
2019-04-07T04:05:15.236Z,95010.95
2019-04-07T04:07:54.640Z,95013.11
2019-04-07T04:10:24.876Z,95014.20
2019-04-07T04:12:55.010Z,95008.41
2019-04-07T04:15:25.146Z,95014.49
2019-04-07T04:17:53.918Z,95015.70
2019-04-07T04:20:22.570Z,95014.37
2019-04-07T04:22:51.074Z,95017.86
2019-04-07T04:25:19.560Z,95017.78
2019-04-07T04:27:48.624Z,95011.39
2019-04-07T04:30:17.440Z,95020.45
2019-04-07T04:32:46.400Z,95024.09
2019-04-07T04:35:15.128Z,95026.82
2019-04-07T04:37:48.834Z,95029.45
2019-04-07T04:40:15.961Z,95031.00
2019-04-07T04:42:44.732Z,95034.55
2019-04-07T04:45:13.813Z,95037.81
2019-04-07T04:47:42.967Z,95046.00
2019-04-07T04:50:12.792Z,95046.00
2019-04-07T04:52:42.775Z,95045.70
2019-04-07T04:55:11.707Z,95048.08
2019-04-07T04:57:40.507Z,95048.59
2019-04-07T05:00:10.381Z,95055.80
2019-04-07T05:02:39.461Z,95041.41
2019-04-07T05:05:09.553Z,95054.24
2019-04-07T05:07:49.814Z,95058.85
2019-04-07T05:10:10.243Z,95059.07
2019-04-07T05:12:39.132Z,95067.91
2019-04-07T05:15:09.730Z,95063.95
2019-04-07T05:17:38.915Z,95066.78
2019-04-07T05:20:08.063Z,95068.72
2019-04-07T05:22:36.841Z,95071.91
2019-04-07T05:25:07.038Z,95072.35
2019-04-07T05:27:35.830Z,95076.44
2019-04-07T05:30:07.646Z,95078.81
2019-04-07T05:32:37.954Z,95076.19
2019-04-07T05:35:07.902Z,95082.81
2019-04-07T05:37:37.360Z,95084.80
2019-04-07T05:40:07.410Z,95086.86
2019-04-07T05:42:35.924Z,95088.88
2019-04-07T05:45:06.656Z,95082.80
2019-04-07T05:47:35.156Z,95087.15
2019-04-07T05:50:05.257Z,95088.56
2019-04-07T05:52:39.043Z,95097.19
2019-04-07T05:55:07.744Z,95098.36
2019-04-07T05:57:36.360Z,95089.38
2019-04-07T06:00:07.854Z,95091.09
2019-04-07T06:02:36.415Z,95094.69
2019-04-07T06:05:06.653Z,95092.74
2019-04-07T06:07:36.760Z,95098.55
2019-04-07T06:10:08.080Z,95089.92
2019-04-07T06:12:39.309Z,95103.42
2019-04-07T06:15:08.702Z,95097.63
2019-04-07T06:17:37.869Z,95099.17
2019-04-07T06:20:12.144Z,95092.69
2019-04-07T06:22:38.774Z,95096.45
2019-04-07T06:25:09.607Z,95095.23
2019-04-07T06:27:38.414Z,95098.88
2019-04-07T06:30:11.828Z,95097.59
2019-04-07T06:32:41.019Z,95092.02
2019-04-07T06:35:13.329Z,95093.50
2019-04-07T06:37:41.811Z,95088.38
2019-04-07T06:40:11.118Z,95092.25
2019-04-07T06:42:40.455Z,95103.95
2019-04-07T06:45:12.950Z,95100.98
2019-04-07T06:47:46.400Z,95103.95
2019-04-07T06:50:44.394Z,95098.61
2019-04-07T06:53:05.399Z,95099.13
2019-04-07T06:55:36.260Z,95096.34
2019-04-07T06:58:21.928Z,95091.87
2019-04-07T07:00:55.966Z,95092.64
2019-04-07T07:03:38.802Z,95095.23
2019-04-07T07:06:11.109Z,95091.52
2019-04-07T07:08:52.995Z,95087.48
2019-04-07T07:11:29.313Z,95083.02
2019-04-07T07:13:56.622Z,95082.17
2019-04-07T07:16:44.439Z,95088.19
2019-04-07T07:19:26.348Z,95086.03
2019-04-07T07:22:15.514Z,95083.71
2019-04-07T07:24:41.676Z,95089.04
2019-04-07T07:27:12.138Z,95088.97
2019-04-07T07:29:40.998Z,95084.48
2019-04-07T07:32:09.459Z,95082.42
2019-04-07T07:34:41.964Z,95086.57
2019-04-07T07:37:08.417Z,95084.41
2019-04-07T07:39:36.902Z,95081.73
2019-04-07T07:42:05.783Z,95083.15
2019-04-07T07:44:37.539Z,95086.35
2019-04-07T07:47:04.789Z,95082.66
2019-04-07T07:49:36.009Z,95080.71
2019-04-07T07:52:03.601Z,95083.58
2019-04-07T07:54:32.110Z,95092.53
2019-04-07T07:57:01.338Z,95093.02
2019-04-07T07:59:33.532Z,95087.42
2019-04-07T08:02:00.096Z,95092.87
2019-04-07T08:04:29.152Z,95089.91
2019-04-07T08:06:57.981Z,95085.56
2019-04-07T08:09:27.229Z,95086.61
2019-04-07T08:11:56.194Z,95091.04
2019-04-07T08:14:24.693Z,95082.48
2019-04-07T08:16:53.201Z,95086.32
2019-04-07T08:19:25.371Z,95077.64
2019-04-07T08:21:52.074Z,95090.41
2019-04-07T08:24:36.233Z,95084.81
2019-04-07T08:27:05.273Z,95091.77
2019-04-07T08:29:37.182Z,95095.48
2019-04-07T08:32:04.372Z,95098.08
2019-04-07T08:34:33.038Z,95098.08
2019-04-07T08:37:02.760Z,95098.30
2019-04-07T08:39:35.081Z,95097.73
2019-04-07T08:42:03.705Z,95087.96
2019-04-07T08:44:32.715Z,95093.81
2019-04-07T08:47:01.427Z,95091.41
2019-04-07T08:49:32.341Z,95087.63
2019-04-07T08:52:04.041Z,95089.55
2019-04-07T08:54:30.629Z,95090.41
2019-04-07T08:57:00.193Z,95082.00
2019-04-07T08:59:29.133Z,95079.06
2019-04-07T09:01:58.098Z,95074.16
2019-04-07T09:04:26.693Z,95075.16
2019-04-07T09:06:59.384Z,95071.20
2019-04-07T09:09:32.656Z,95065.42
2019-04-07T09:11:57.500Z,95070.83
2019-04-07T09:14:27.192Z,95073.30
2019-04-07T09:17:13.709Z,95071.42
2019-04-07T09:19:44.321Z,95071.17
2019-04-07T09:22:22.867Z,95076.58
2019-04-07T09:25:09.623Z,95074.08
2019-04-07T09:27:43.231Z,95073.71
2019-04-07T09:30:15.313Z,95076.95
2019-04-07T09:32:46.044Z,95069.66
2019-04-07T09:35:33.385Z,95068.08
2019-04-07T09:38:04.416Z,95066.98
2019-04-07T09:40:50.678Z,95067.05
2019-04-07T09:43:37.197Z,95070.05
2019-04-07T09:46:24.297Z,95070.39
2019-04-07T09:48:58.710Z,95068.58
2019-04-07T09:51:45.173Z,95071.00
2019-04-07T09:54:25.160Z,95066.67
2019-04-07T09:57:05.051Z,95063.66
2019-04-07T09:59:39.724Z,95065.52
2019-04-07T10:02:26.229Z,95058.80
2019-04-07T10:05:05.095Z,95063.44
2019-04-07T10:07:35.922Z,95065.31
2019-04-07T10:10:17.422Z,95065.86
2019-04-07T10:12:56.665Z,95074.18
2019-04-07T10:15:36.173Z,95070.66
2019-04-07T10:18:22.963Z,95068.01
2019-04-07T10:20:58.866Z,95067.50
2019-04-07T10:23:45.862Z,95070.46
2019-04-07T10:26:33.800Z,95058.97
2019-04-07T10:29:04.620Z,95055.89
2019-04-07T10:31:35.434Z,95049.63
2019-04-07T10:34:06.259Z,95058.20
2019-04-07T10:36:45.805Z,95049.07
2019-04-07T10:39:19.758Z,95045.09
2019-04-07T10:41:59.006Z,95051.02
2019-04-07T10:44:45.459Z,95051.25
2019-04-07T10:50:20.074Z,95051.43
2019-04-07T10:52:56.256Z,95048.99
2019-04-07T10:55:44.230Z,95049.97
2019-04-07T10:58:17.490Z,95042.73
2019-04-07T11:00:49.407Z,95037.84
2019-04-07T11:03:19.757Z,95041.00
2019-04-07T11:06:07.234Z,95037.74
2019-04-07T11:08:53.480Z,95039.75
2019-04-07T11:11:38.947Z,95047.52
2019-04-07T11:14:42.937Z,95037.64
2019-04-07T11:17:16.190Z,95041.39
2019-04-07T11:19:53.100Z,95037.70
2019-04-07T11:22:40.158Z,95037.59
2019-04-07T11:25:27.387Z,95043.44
2019-04-07T11:28:06.759Z,95037.38
2019-04-07T11:30:43.741Z,95042.88
2019-04-07T11:33:30.070Z,95043.74
2019-04-07T11:36:06.041Z,95043.00
2019-04-07T11:38:53.359Z,95047.52
2019-04-07T11:41:27.727Z,95045.67
2019-04-07T11:44:01.921Z,95050.70
2019-04-07T11:46:48.580Z,95040.92
2019-04-07T11:49:19.500Z,95049.93
2019-04-07T11:51:49.842Z,95050.82
2019-04-07T11:54:29.576Z,95050.12
2019-04-07T11:57:15.385Z,95053.05
2019-04-07T12:00:02.419Z,95053.92
2019-04-07T12:02:33.065Z,95052.96
2019-04-07T12:05:15.910Z,95050.79
2019-04-07T12:08:02.615Z,95053.13
2019-04-07T12:10:56.297Z,95048.14
2019-04-07T12:13:17.039Z,95044.97
2019-04-07T12:16:03.695Z,95050.12
2019-04-07T12:18:52.390Z,95050.97
2019-04-07T12:21:25.829Z,95060.13
2019-04-07T12:24:03.256Z,95058.47
2019-04-07T12:26:43.682Z,95056.73
2019-04-07T12:29:23.383Z,95056.80
2019-04-07T12:31:59.793Z,95062.55
2019-04-07T12:34:47.762Z,95061.47
2019-04-07T12:37:18.785Z,95063.75
2019-04-07T12:40:04.345Z,95068.81
2019-04-07T12:42:52.485Z,95067.20
2019-04-07T12:45:23.543Z,95069.89
2019-04-07T12:47:57.171Z,95059.94
2019-04-07T12:50:42.633Z,95065.35
2019-04-07T12:53:34.397Z,95072.44
2019-04-07T12:56:18.617Z,95073.20
2019-04-07T13:01:49.730Z,95069.87
2019-04-07T13:04:28.624Z,95071.62
2019-04-07T13:06:58.877Z,95068.73
2019-04-07T13:09:46.092Z,95065.19
2019-04-07T13:12:33.238Z,95072.22
2019-04-07T13:15:11.926Z,95070.80
2019-04-07T13:17:44.173Z,95074.12
2019-04-07T13:20:26.838Z,95075.92
2019-04-07T13:23:00.344Z,95072.11
2019-04-07T13:25:45.610Z,95074.42
2019-04-07T13:28:16.449Z,95071.09
2019-04-07T13:30:58.887Z,95070.84
2019-04-07T13:33:34.910Z,95071.76
2019-04-07T13:36:17.586Z,95066.50
2019-04-07T13:38:47.688Z,95062.95
2019-04-07T13:41:23.864Z,95070.88
2019-04-07T13:44:04.761Z,95059.72
2019-04-07T13:46:40.140Z,95067.25
2019-04-07T13:49:27.416Z,95066.27
2019-04-07T13:51:59.903Z,95065.19
2019-04-07T13:54:33.859Z,95071.66
2019-04-07T13:57:04.564Z,95074.48
2019-04-07T13:59:50.816Z,95072.79
2019-04-07T14:02:24.776Z,95080.28
2019-04-07T14:05:05.199Z,95077.64
2019-04-07T14:07:53.934Z,95082.44
2019-04-07T14:10:37.217Z,95085.59
2019-04-07T14:13:10.817Z,95088.11
2019-04-07T14:15:48.742Z,95094.44
2019-04-07T14:18:24.535Z,95093.05
2019-04-07T14:21:00.459Z,95094.94
2019-04-07T14:23:30.598Z,95095.58
2019-04-07T14:26:16.821Z,95101.82
2019-04-07T14:28:53.296Z,95101.32
2019-04-07T14:31:40.130Z,95101.39
2019-04-07T14:34:10.727Z,95106.30
2019-04-07T14:37:00.014Z,95112.54
2019-04-07T14:39:30.326Z,95110.95
2019-04-07T14:42:04.526Z,95117.72
2019-04-07T14:44:32.278Z,95116.09
2019-04-07T14:50:09.012Z,95120.72
2019-04-07T14:52:45.522Z,95124.80
2019-04-07T14:55:32.566Z,95133.77
2019-04-07T14:58:19.252Z,95133.48
2019-04-07T15:01:02.671Z,95129.20
2019-04-07T15:03:28.983Z,95148.94
2019-04-07T15:05:58.283Z,95145.98
2019-04-07T15:08:36.609Z,95147.61
2019-04-07T15:11:19.537Z,95145.14
2019-04-07T15:13:48.143Z,95157.86
2019-04-07T15:16:16.772Z,95158.66
2019-04-07T15:18:45.713Z,95167.31
2019-04-07T15:21:14.579Z,95167.59
2019-04-07T15:23:45.781Z,95170.84
2019-04-07T15:26:15.737Z,95181.39
2019-04-07T15:28:44.663Z,95178.41
2019-04-07T15:31:13.304Z,95180.84
2019-04-07T15:33:42.381Z,95179.77
2019-04-07T15:36:11.063Z,95180.31
2019-04-07T15:38:40.832Z,95183.81
2019-04-07T15:41:15.300Z,95182.98
2019-04-07T15:43:40.118Z,95191.13
2019-04-07T15:46:09.502Z,95195.45
2019-04-07T15:48:38.777Z,95190.34
2019-04-07T15:51:07.976Z,95200.88
2019-04-07T15:53:37.001Z,95197.59
2019-04-07T15:56:07.103Z,95203.80
2019-04-07T15:58:35.713Z,95203.52
2019-04-07T16:01:06.758Z,95211.38
2019-04-07T16:03:34.496Z,95211.89
2019-04-07T16:06:03.511Z,95210.80
2019-04-07T16:08:32.042Z,95216.38
2019-04-07T16:11:00.692Z,95223.63
2019-04-07T16:13:29.919Z,95224.14
2019-04-07T16:15:58.483Z,95233.57
2019-04-07T16:18:26.988Z,95234.48
2019-04-07T16:20:56.372Z,95238.39
2019-04-07T16:23:25.198Z,95242.59
2019-04-07T16:25:54.954Z,95252.31
2019-04-07T16:28:24.153Z,95256.27
2019-04-07T16:30:52.628Z,95259.39
2019-04-07T16:33:21.732Z,95256.16
2019-04-07T16:35:54.458Z,95265.01
2019-04-07T16:38:20.713Z,95267.00
2019-04-07T16:40:49.139Z,95270.91
2019-04-07T16:43:18.945Z,95278.71
2019-04-07T16:45:48.562Z,95275.58
2019-04-07T16:48:17.367Z,95282.97
2019-04-07T16:50:50.757Z,95282.90
2019-04-07T16:53:16.342Z,95285.79
2019-04-07T16:55:48.907Z,95287.50
2019-04-07T16:58:16.275Z,95287.86
2019-04-07T17:00:45.317Z,95297.13
2019-04-07T17:03:13.963Z,95281.89
2019-04-07T17:05:43.070Z,95299.75
2019-04-07T17:08:12.756Z,95299.75
2019-04-07T17:10:41.352Z,95298.94
2019-04-07T17:13:19.366Z,95304.62
2019-04-07T17:15:41.844Z,95307.27
2019-04-07T17:18:21.404Z,95322.12
2019-04-07T17:20:49.442Z,95317.64
2019-04-07T17:23:21.344Z,95322.36
2019-04-07T17:25:48.112Z,95326.03
2019-04-07T17:28:16.670Z,95325.73
2019-04-07T17:30:45.305Z,95327.33
2019-04-07T17:33:13.829Z,95332.38
2019-04-07T17:35:43.587Z,95334.97
2019-04-07T17:38:13.816Z,95336.72
2019-04-07T17:40:45.202Z,95339.98
2019-04-07T17:43:25.687Z,95346.53
2019-04-07T17:46:05.152Z,95351.75
2019-04-07T17:48:41.519Z,95355.08
2019-04-07T17:51:26.319Z,95358.41
2019-04-07T17:53:57.118Z,95364.95
2019-04-07T17:56:41.012Z,95364.48
2019-04-07T17:59:20.885Z,95364.95
2019-04-07T18:01:55.467Z,95355.09
2019-04-07T18:04:30.642Z,95373.16
2019-04-07T18:07:10.105Z,95380.25
2019-04-07T18:09:50.176Z,95382.89
2019-04-07T18:12:24.844Z,95384.85
2019-04-07T18:15:10.153Z,95385.75
2019-04-07T18:17:51.291Z,95398.23
2019-04-07T18:20:39.578Z,95394.88
2019-04-07T18:23:11.972Z,95400.42
2019-04-07T18:25:50.555Z,95400.63
2019-04-07T18:28:30.417Z,95410.48
2019-04-07T18:31:06.737Z,95415.22
2019-04-07T18:33:40.052Z,95421.77
2019-04-07T18:36:28.995Z,95417.81
2019-04-07T18:39:17.365Z,95423.48
2019-04-07T18:41:49.409Z,95433.72
2019-04-07T18:44:40.077Z,95440.61
2019-04-07T18:47:23.372Z,95447.62
2019-04-07T18:50:04.137Z,95447.30
2019-04-07T18:52:35.698Z,95455.52
2019-04-07T18:55:11.042Z,95463.89
2019-04-07T18:57:56.299Z,95463.06
2019-04-07T19:00:30.192Z,95469.59
2019-04-07T19:03:16.390Z,95478.34
2019-04-07T19:05:45.396Z,95476.84
2019-04-07T19:08:20.263Z,95476.64
2019-04-07T19:11:14.839Z,95483.63
2019-04-07T19:13:39.949Z,95476.81
2019-04-07T19:16:18.844Z,95482.84
2019-04-07T19:19:01.487Z,95480.87
2019-04-07T19:21:31.633Z,95494.42
2019-04-07T19:24:02.447Z,95484.72
2019-04-07T19:26:33.558Z,95488.59
2019-04-07T19:29:08.543Z,95492.27
2019-04-07T19:31:43.906Z,95497.56
2019-04-07T19:34:32.815Z,95501.56
2019-04-07T19:37:03.965Z,95498.16
2019-04-07T19:39:34.914Z,95501.84
2019-04-07T19:42:21.895Z,95510.79
2019-04-07T19:44:55.411Z,95507.67
2019-04-07T19:47:26.230Z,95511.44
2019-04-07T19:50:05.260Z,95515.57
2019-04-07T19:52:47.677Z,95510.89
2019-04-07T19:55:30.337Z,95511.26
2019-04-07T19:58:02.735Z,95507.52
2019-04-07T20:00:35.525Z,95519.55
2019-04-07T20:03:13.431Z,95519.25
2019-04-07T20:05:43.473Z,95521.42
2019-04-07T20:08:19.110Z,95521.24
2019-04-07T20:10:49.889Z,95518.53
2019-04-07T20:13:20.262Z,95525.48
2019-04-07T20:15:57.809Z,95520.41
2019-04-07T20:18:30.512Z,95525.09
2019-04-07T20:21:03.550Z,95522.94
2019-04-07T20:23:52.283Z,95518.83
2019-04-07T20:26:22.700Z,95516.86
2019-04-07T20:29:03.152Z,95518.87
2019-04-07T20:31:47.188Z,95518.24
2019-04-07T20:34:40.116Z,95519.06
2019-04-07T20:37:07.764Z,95522.91
2019-04-07T20:39:53.278Z,95514.30
2019-04-07T20:42:26.932Z,95517.36
2019-04-07T20:45:03.820Z,95515.49
2019-04-07T20:47:45.341Z,95511.72
2019-04-07T20:50:31.613Z,95510.38
2019-04-07T20:53:12.627Z,95512.47
2019-04-07T20:55:41.215Z,95512.57
2019-04-07T20:58:23.926Z,95515.11
2019-04-07T21:01:02.472Z,95520.25
2019-04-07T21:03:50.345Z,95520.03
2019-04-07T21:06:36.260Z,95524.98
2019-04-07T21:09:17.729Z,95528.41
2019-04-07T21:11:56.877Z,95527.81
2019-04-07T21:14:29.922Z,95528.86
2019-04-07T21:17:03.884Z,95535.44
2019-04-07T21:19:52.449Z,95536.51
2019-04-07T21:22:34.789Z,95536.28
2019-04-07T21:25:23.744Z,95540.53
2019-04-07T21:28:03.406Z,95545.59
2019-04-07T21:30:44.823Z,95537.41
2019-04-07T21:33:23.725Z,95540.34
2019-04-07T21:36:04.815Z,95532.44
2019-04-07T21:38:39.567Z,95542.58
2019-04-07T21:41:12.219Z,95541.41
2019-04-07T21:43:48.850Z,95539.00
2019-04-07T21:46:23.557Z,95550.55
2019-04-07T21:49:00.029Z,95541.16
2019-04-07T21:51:41.061Z,95549.73
2019-04-07T21:54:27.004Z,95546.23
2019-04-07T21:57:14.846Z,95543.80
2019-04-07T21:59:52.113Z,95539.67
2019-04-07T22:02:22.592Z,95540.64
2019-04-07T22:05:07.735Z,95543.52
2019-04-07T22:07:54.203Z,95547.91
2019-04-07T22:10:23.009Z,95548.22
2019-04-07T22:12:51.972Z,95552.73
2019-04-07T22:15:20.757Z,95556.59
2019-04-07T22:17:49.283Z,95560.04
2019-04-07T22:20:19.915Z,95560.69
2019-04-07T22:22:48.138Z,95568.73
2019-04-07T22:25:20.592Z,95564.28
2019-04-07T22:27:49.297Z,95564.20
2019-04-07T22:30:18.591Z,95575.45
2019-04-07T22:32:50.946Z,95575.83
2019-04-07T22:35:17.724Z,95575.01
2019-04-07T22:37:49.719Z,95575.53
2019-04-07T22:40:21.363Z,95576.87
2019-04-07T22:42:50.114Z,95576.65
2019-04-07T22:45:19.100Z,95573.37
2019-04-07T22:47:51.484Z,95575.14
2019-04-07T22:50:18.262Z,95578.72
2019-04-07T22:52:49.271Z,95580.89
2019-04-07T22:55:17.110Z,95578.34
2019-04-07T22:57:45.625Z,95585.05
2019-04-07T23:00:23.246Z,95590.28
2019-04-07T23:02:52.089Z,95588.33
2019-04-07T23:05:20.579Z,95588.86
2019-04-07T23:07:50.082Z,95598.41
2019-04-07T23:10:19.718Z,95592.45
2019-04-07T23:12:48.321Z,95589.89
2019-04-07T23:15:16.948Z,95594.69
2019-04-07T23:17:47.232Z,95595.05
2019-04-07T23:20:15.933Z,95597.73
2019-04-07T23:22:44.585Z,95604.59
2019-04-07T23:25:13.209Z,95605.03
2019-04-07T23:27:41.710Z,95605.47
2019-04-07T23:30:11.252Z,95602.22
2019-04-07T23:32:39.802Z,95607.94
2019-04-07T23:35:08.425Z,95609.80
2019-04-07T23:37:37.048Z,95612.55
2019-04-07T23:40:08.684Z,95611.87
2019-04-07T23:42:38.184Z,95614.11
2019-04-07T23:45:08.245Z,95618.07
2019-04-07T23:47:37.066Z,95626.11
2019-04-07T23:50:07.763Z,95631.17
2019-04-07T23:52:36.279Z,95630.57
2019-04-07T23:55:04.863Z,95628.63
2019-04-07T23:57:33.356Z,95625.51
